createdAt,value
2023-06-10T00:00:25.530Z,98979.85
2023-06-10T00:01:54.801Z,98980.25
2023-06-10T00:03:03.333Z,98981.09
2023-06-10T00:04:12.231Z,98976.31
2023-06-10T00:05:23.510Z,98978.15
2023-06-10T00:06:38.653Z,98978.03
2023-06-10T00:07:48.663Z,98978.48
2023-06-10T00:08:58.267Z,98979.19
2023-06-10T00:10:07.547Z,98979.68
2023-06-10T00:11:16.189Z,98973.66
2023-06-10T00:12:23.792Z,98974.77
2023-06-10T00:13:32.861Z,98972.14
2023-06-10T00:14:42.783Z,98974.27
2023-06-10T00:15:50.152Z,98975.10
2023-06-10T00:16:57.880Z,98972.15
2023-06-10T00:18:06.335Z,98970.20
2023-06-10T00:19:16.683Z,98967.48
2023-06-10T00:20:28.152Z,98966.21
2023-06-10T00:21:42.923Z,98967.66
2023-06-10T00:22:51.120Z,98966.15
2023-06-10T00:24:00.336Z,98961.94
2023-06-10T00:25:10.374Z,98964.32
2023-06-10T00:26:20.771Z,98962.04
2023-06-10T00:27:33.471Z,98960.20
2023-06-10T00:28:40.609Z,98960.88
2023-06-10T00:29:47.398Z,98960.22
2023-06-10T00:30:58.027Z,98962.60
2023-06-10T00:32:05.155Z,98964.81
2023-06-10T00:33:13.966Z,98963.33
2023-06-10T00:34:21.379Z,98966.88
2023-06-10T00:35:28.527Z,98969.75
2023-06-10T00:36:35.520Z,98968.41
2023-06-10T00:37:42.889Z,98970.08
2023-06-10T00:38:50.099Z,98970.86
2023-06-10T00:39:56.879Z,98970.08
2023-06-10T00:41:04.139Z,98970.53
2023-06-10T00:42:13.155Z,98973.41
2023-06-10T00:43:19.940Z,98972.23
2023-06-10T00:44:27.724Z,98969.92
2023-06-10T00:45:35.294Z,98967.04
2023-06-10T00:46:42.333Z,98968.80
2023-06-10T00:47:49.784Z,98968.86
2023-06-10T00:48:56.553Z,98968.20
2023-06-10T00:50:03.357Z,98970.80
2023-06-10T00:51:11.719Z,98968.02
2023-06-10T00:52:22.204Z,98971.46
2023-06-10T00:53:29.864Z,98972.30
2023-06-10T00:54:37.212Z,98971.91
2023-06-10T00:55:44.172Z,98969.30
2023-06-10T00:56:51.511Z,98967.30
2023-06-10T00:57:58.230Z,98968.69
2023-06-10T00:59:06.285Z,98967.13
2023-06-10T01:00:15.502Z,98966.87
2023-06-10T01:01:22.864Z,98967.59
2023-06-10T01:02:31.828Z,98967.41
2023-06-10T01:03:39.747Z,98971.63
2023-06-10T01:04:47.171Z,98966.04
2023-06-10T01:05:58.825Z,98966.14
2023-06-10T01:07:34.234Z,98965.15
2023-06-10T01:08:48.404Z,98963.66
2023-06-10T01:10:13.865Z,98964.48
2023-06-10T01:11:24.786Z,98967.16
2023-06-10T01:12:44.523Z,98969.70
2023-06-10T01:13:54.241Z,98970.87
2023-06-10T01:15:02.828Z,98968.60
2023-06-10T01:16:12.294Z,98967.82
2023-06-10T01:17:21.217Z,98969.42
2023-06-10T01:18:34.371Z,98970.86
2023-06-10T01:19:43.187Z,98971.87
2023-06-10T01:20:52.159Z,98968.64
2023-06-10T01:22:03.488Z,98969.41
2023-06-10T01:23:10.996Z,98971.92
2023-06-10T01:24:20.545Z,98972.31
2023-06-10T01:25:36.230Z,98971.07
2023-06-10T01:26:43.517Z,98972.73
2023-06-10T01:27:50.970Z,98970.25
2023-06-10T01:29:02.478Z,98970.97
2023-06-10T01:30:18.544Z,98970.58
2023-06-10T01:31:50.655Z,98966.86
2023-06-10T01:33:01.096Z,98968.14
2023-06-10T01:34:12.139Z,98968.04
2023-06-10T01:35:19.151Z,98971.02
2023-06-10T01:36:26.846Z,98967.53
2023-06-10T01:37:34.075Z,98966.09
2023-06-10T01:38:46.117Z,98968.81
2023-06-10T01:39:54.480Z,98969.86
2023-06-10T01:41:01.714Z,98970.97
2023-06-10T01:42:09.211Z,98972.02
2023-06-10T01:43:16.209Z,98974.30
2023-06-10T01:44:28.051Z,98973.86
2023-06-10T01:45:35.020Z,98974.90
2023-06-10T01:46:43.140Z,98973.52
2023-06-10T01:47:51.492Z,98972.98
2023-06-10T01:48:59.950Z,98972.80
2023-06-10T01:50:07.303Z,98972.74
2023-06-10T01:51:17.115Z,98970.59
2023-06-10T01:52:24.062Z,98968.86
2023-06-10T01:53:31.527Z,98968.80
2023-06-10T01:54:39.214Z,98973.40
2023-06-10T01:55:46.381Z,98972.52
2023-06-10T01:56:55.085Z,98972.67
2023-06-10T01:58:02.089Z,98970.84
2023-06-10T01:59:10.203Z,98969.96
2023-06-10T02:00:18.094Z,98967.63
2023-06-10T02:01:25.067Z,98966.90
2023-06-10T02:02:33.666Z,98963.47
2023-06-10T02:03:42.458Z,98964.13
2023-06-10T02:04:49.071Z,98963.80
2023-06-10T02:05:55.852Z,98963.02
2023-06-10T02:07:06.348Z,98966.13
2023-06-10T02:08:14.623Z,98964.23
2023-06-10T02:09:21.962Z,98964.80
2023-06-10T02:10:30.346Z,98965.81
2023-06-10T02:11:38.169Z,98964.64
2023-06-10T02:12:45.555Z,98965.95
2023-06-10T02:13:52.500Z,98966.91
2023-06-10T02:14:59.636Z,98970.52
2023-06-10T02:16:08.372Z,98970.67
2023-06-10T02:17:17.697Z,98972.30
2023-06-10T02:18:24.518Z,98972.46
2023-06-10T02:19:36.224Z,98971.02
2023-06-10T02:20:43.441Z,98972.58
2023-06-10T02:21:50.968Z,98969.29
2023-06-10T02:22:57.688Z,98968.02
2023-06-10T02:24:06.104Z,98971.19
2023-06-10T02:25:15.329Z,98968.91
2023-06-10T02:26:23.690Z,98966.23
2023-06-10T02:27:30.368Z,98967.36
2023-06-10T02:28:38.688Z,98968.13
2023-06-10T02:29:46.004Z,98971.29
2023-06-10T02:30:54.427Z,98969.91
2023-06-10T02:32:02.201Z,98971.68
2023-06-10T02:33:12.470Z,98968.18
2023-06-10T02:34:20.422Z,98965.95
2023-06-10T02:35:28.626Z,98967.95
2023-06-10T02:36:38.234Z,98966.08
2023-06-10T02:37:48.215Z,98961.70
2023-06-10T02:38:55.949Z,98964.02
2023-06-10T02:40:04.144Z,98960.81
2023-06-10T02:41:12.918Z,98961.20
2023-06-10T02:42:22.085Z,98965.19
2023-06-10T02:43:30.231Z,98963.19
2023-06-10T02:44:38.537Z,98964.52
2023-06-10T02:45:45.993Z,98964.14
2023-06-10T02:46:53.813Z,98965.23
2023-06-10T02:48:02.640Z,98962.64
2023-06-10T02:49:10.380Z,98963.14
2023-06-10T02:50:18.546Z,98967.58
2023-06-10T02:51:34.721Z,98965.85
2023-06-10T02:52:43.788Z,98970.58
2023-06-10T02:53:50.921Z,98965.41
2023-06-10T02:54:59.511Z,98965.35
2023-06-10T02:56:07.436Z,98967.73
2023-06-10T02:57:16.782Z,98967.57
2023-06-10T02:58:24.942Z,98970.41
2023-06-10T02:59:33.446Z,98972.95
2023-06-10T03:00:41.938Z,98971.91
2023-06-10T03:01:50.365Z,98974.35
2023-06-10T03:03:00.835Z,98978.45
2023-06-10T03:04:12.276Z,98978.45
2023-06-10T03:05:19.647Z,98979.62
2023-06-10T03:06:29.129Z,98979.95
2023-06-10T03:07:44.028Z,98979.23
2023-06-10T03:08:51.673Z,98980.89
2023-06-10T03:09:59.451Z,98980.34
2023-06-10T03:11:07.781Z,98984.61
2023-06-10T03:12:15.082Z,98985.20
2023-06-10T03:13:27.310Z,98985.21
2023-06-10T03:14:34.836Z,98987.48
2023-06-10T03:15:44.657Z,98984.55
2023-06-10T03:16:54.022Z,98982.78
2023-06-10T03:18:03.272Z,98984.39
2023-06-10T03:19:11.581Z,98984.71
2023-06-10T03:20:21.492Z,98987.98
2023-06-10T03:21:30.182Z,98989.87
2023-06-10T03:22:38.698Z,98990.10
2023-06-10T03:23:48.884Z,98992.42
2023-06-10T03:24:57.859Z,98993.44
2023-06-10T03:26:08.602Z,98993.37
2023-06-10T03:27:18.978Z,98997.81
2023-06-10T03:28:27.953Z,98995.04
2023-06-10T03:29:36.258Z,98993.04
2023-06-10T03:30:45.018Z,98993.64
2023-06-10T03:31:53.296Z,98991.09
2023-06-10T03:33:02.054Z,98991.80
2023-06-10T03:34:10.164Z,98989.04
2023-06-10T03:35:18.828Z,98990.14
2023-06-10T03:36:27.154Z,98988.54
2023-06-10T03:37:34.969Z,98988.27
2023-06-10T03:38:43.239Z,98985.15
2023-06-10T03:39:50.420Z,98980.87
2023-06-10T03:40:58.495Z,98977.71
2023-06-10T03:42:06.983Z,98978.33
2023-06-10T03:43:14.827Z,98979.83
2023-06-10T03:44:23.949Z,98984.77
2023-06-10T03:45:33.166Z,98985.71
2023-06-10T03:46:41.651Z,98979.88
2023-06-10T03:47:50.414Z,98980.16
2023-06-10T03:49:03.425Z,98980.16
2023-06-10T03:50:11.811Z,98977.44
2023-06-10T03:51:20.544Z,98978.48
2023-06-10T03:52:27.747Z,98976.67
2023-06-10T03:53:35.286Z,98979.20
2023-06-10T03:54:42.812Z,98979.31
2023-06-10T03:55:50.973Z,98978.83
2023-06-10T03:57:02.722Z,98981.77
2023-06-10T03:58:11.514Z,98988.02
2023-06-10T03:59:20.894Z,98987.48
2023-06-10T04:00:29.045Z,98990.96
2023-06-10T04:01:38.598Z,98992.80
2023-06-10T04:02:48.234Z,98992.80
2023-06-10T04:04:01.907Z,98994.52
2023-06-10T04:05:10.280Z,98995.81
2023-06-10T04:06:18.857Z,98998.52
2023-06-10T04:07:29.527Z,98999.61
2023-06-10T04:08:39.937Z,99001.13
2023-06-10T04:09:47.723Z,99001.52
2023-06-10T04:10:55.627Z,99006.84
2023-06-10T04:12:04.421Z,99007.17
2023-06-10T04:13:13.217Z,99003.91
2023-06-10T04:14:25.877Z,99002.78
2023-06-10T04:15:36.537Z,99001.84
2023-06-10T04:16:47.670Z,99001.45
2023-06-10T04:17:56.428Z,98996.58
2023-06-10T04:19:05.537Z,98996.35
2023-06-10T04:20:13.366Z,98999.08
2023-06-10T04:21:24.410Z,98999.30
2023-06-10T04:22:32.465Z,99002.01
2023-06-10T04:23:41.135Z,99003.89
2023-06-10T04:24:48.692Z,99006.27
2023-06-10T04:25:58.214Z,99008.18
2023-06-10T04:27:05.858Z,99008.06
2023-06-10T04:28:14.655Z,99009.22
2023-06-10T04:29:23.700Z,99010.11
2023-06-10T04:30:34.033Z,99010.16
2023-06-10T04:31:41.592Z,99009.83
2023-06-10T04:32:50.130Z,99010.39
2023-06-10T04:33:58.807Z,99010.73
2023-06-10T04:35:08.484Z,99009.77
2023-06-10T04:36:17.149Z,99014.50
2023-06-10T04:37:27.453Z,99013.89
2023-06-10T04:38:35.602Z,99017.81
2023-06-10T04:39:44.691Z,99023.42
2023-06-10T04:40:52.155Z,99026.20
2023-06-10T04:42:00.330Z,99027.63
2023-06-10T04:43:08.488Z,99027.80
2023-06-10T04:44:16.666Z,99029.08
2023-06-10T04:45:25.136Z,99031.34
2023-06-10T04:46:35.062Z,99030.80
2023-06-10T04:47:42.335Z,99028.02
2023-06-10T04:48:50.937Z,99029.91
2023-06-10T04:50:00.023Z,99033.52
2023-06-10T04:51:10.113Z,99032.40
2023-06-10T04:52:19.455Z,99034.23
2023-06-10T04:53:28.407Z,99036.84
2023-06-10T04:54:35.874Z,99039.06
2023-06-10T04:55:44.256Z,99039.39
2023-06-10T04:56:51.558Z,99036.67
2023-06-10T04:57:59.448Z,99039.29
2023-06-10T04:59:06.328Z,99043.83
2023-06-10T05:00:13.890Z,99044.39
2023-06-10T05:01:21.389Z,99046.38
2023-06-10T05:02:28.739Z,99048.10
2023-06-10T05:03:35.920Z,99044.01
2023-06-10T05:04:43.197Z,99043.27
2023-06-10T05:05:50.293Z,99046.77
2023-06-10T05:06:57.307Z,99043.61
2023-06-10T05:08:06.776Z,99042.89
2023-06-10T05:09:18.614Z,99046.38
2023-06-10T05:10:28.579Z,99047.66
2023-06-10T05:11:36.340Z,99047.38
2023-06-10T05:12:43.737Z,99047.98
2023-06-10T05:13:51.315Z,99050.05
2023-06-10T05:14:58.337Z,99043.27
2023-06-10T05:16:06.028Z,99042.11
2023-06-10T05:17:15.540Z,99041.23
2023-06-10T05:18:22.154Z,99041.95
2023-06-10T05:19:29.653Z,99041.05
2023-06-10T05:20:36.690Z,99043.22
2023-06-10T05:21:43.418Z,99043.38
2023-06-10T05:22:50.469Z,99043.32
2023-06-10T05:23:57.381Z,99047.70
2023-06-10T05:25:04.545Z,99049.52
2023-06-10T05:26:11.816Z,99051.03
2023-06-10T05:27:18.612Z,99054.64
2023-06-10T05:28:26.001Z,99050.42
2023-06-10T05:29:32.878Z,99051.54
2023-06-10T05:30:39.703Z,99052.81
2023-06-10T05:31:46.418Z,99050.59
2023-06-10T05:32:53.524Z,99052.42
2023-06-10T05:34:03.299Z,99046.70
2023-06-10T05:35:10.675Z,99048.71
2023-06-10T05:36:18.278Z,99050.59
2023-06-10T05:37:25.166Z,99049.10
2023-06-10T05:38:32.065Z,99047.77
2023-06-10T05:39:43.170Z,99046.27
2023-06-10T05:40:49.534Z,99045.05
2023-06-10T05:41:56.225Z,99041.55
2023-06-10T05:43:02.816Z,99039.44
2023-06-10T05:44:11.329Z,99039.44
2023-06-10T05:45:23.562Z,99039.66
2023-06-10T05:46:32.073Z,99040.22
2023-06-10T05:47:40.173Z,99038.16
2023-06-10T05:48:47.788Z,99035.56
2023-06-10T05:49:55.212Z,99034.28
2023-06-10T05:51:03.691Z,99030.23
2023-06-10T05:52:11.906Z,99028.02
2023-06-10T05:53:19.079Z,99023.96
2023-06-10T05:54:27.064Z,99025.96
2023-06-10T05:55:36.187Z,99026.13
2023-06-10T05:56:43.867Z,99024.07
2023-06-10T05:57:50.588Z,99019.17
2023-06-10T05:58:57.566Z,99012.48
2023-06-10T06:00:05.789Z,99014.14
2023-06-10T06:01:20.111Z,99013.41
2023-06-10T06:02:27.537Z,99013.09
2023-06-10T06:03:38.074Z,99010.48
2023-06-10T06:04:45.312Z,99011.20
2023-06-10T06:05:52.044Z,99014.70
2023-06-10T06:07:01.879Z,99012.38
2023-06-10T06:08:08.969Z,99008.98
2023-06-10T06:09:15.901Z,99010.20
2023-06-10T06:10:25.928Z,99007.55
2023-06-10T06:11:33.122Z,99011.75
2023-06-10T06:12:44.509Z,99008.21
2023-06-10T06:13:53.488Z,99003.93
2023-06-10T06:15:02.100Z,99002.72
2023-06-10T06:16:10.931Z,98999.05
2023-06-10T06:17:19.046Z,98999.45
2023-06-10T06:18:26.255Z,98998.11
2023-06-10T06:19:34.407Z,98995.73
2023-06-10T06:20:42.528Z,98994.84
2023-06-10T06:21:49.913Z,98991.11
2023-06-10T06:22:58.582Z,98990.17
2023-06-10T06:24:08.116Z,98988.58
2023-06-10T06:25:16.527Z,98986.48
2023-06-10T06:26:24.644Z,98988.51
2023-06-10T06:27:32.856Z,98988.17
2023-06-10T06:28:40.322Z,98991.23
2023-06-10T06:29:47.844Z,98987.41
2023-06-10T06:30:55.710Z,98984.96
2023-06-10T06:32:03.524Z,98983.20
2023-06-10T06:33:12.353Z,98982.91
2023-06-10T06:34:19.554Z,98978.91
2023-06-10T06:35:27.091Z,98978.75
2023-06-10T06:36:33.968Z,98978.52
2023-06-10T06:37:41.476Z,98977.52
2023-06-10T06:38:57.598Z,98981.30
2023-06-10T06:40:05.200Z,98980.58
2023-06-10T06:41:13.616Z,98980.09
2023-06-10T06:42:21.251Z,98981.13
2023-06-10T06:43:45.953Z,98975.81
2023-06-10T06:45:12.836Z,98975.27
2023-06-10T06:46:20.453Z,98972.20
2023-06-10T06:47:28.874Z,98971.49
2023-06-10T06:48:35.900Z,98970.88
2023-06-10T06:49:46.265Z,98970.16
2023-06-10T06:50:54.493Z,98972.36
2023-06-10T06:52:02.282Z,98973.27
2023-06-10T06:53:11.057Z,98973.31
2023-06-10T06:54:18.471Z,98972.80
2023-06-10T06:55:25.758Z,98972.60
2023-06-10T06:56:33.482Z,98972.48
2023-06-10T06:57:40.888Z,98972.15
2023-06-10T06:58:47.497Z,98969.65
2023-06-10T06:59:55.463Z,98970.59
2023-06-10T07:01:03.048Z,98970.27
2023-06-10T07:02:09.906Z,98972.65
2023-06-10T07:03:16.365Z,98970.98
2023-06-10T07:04:26.476Z,98969.71
2023-06-10T07:05:33.733Z,98966.70
2023-06-10T07:06:40.948Z,98965.14
2023-06-10T07:07:47.778Z,98960.71
2023-06-10T07:08:59.161Z,98959.45
2023-06-10T07:10:06.718Z,98955.06
2023-06-10T07:11:14.195Z,98951.56
2023-06-10T07:12:22.037Z,98953.39
2023-06-10T07:13:29.589Z,98946.91
2023-06-10T07:14:37.396Z,98945.84
2023-06-10T07:15:44.542Z,98942.07
2023-06-10T07:16:51.935Z,98937.70
2023-06-10T07:18:02.114Z,98936.20
2023-06-10T07:19:13.570Z,98940.24
2023-06-10T07:20:22.049Z,98939.92
2023-06-10T07:21:31.169Z,98934.97
2023-06-10T07:22:39.326Z,98935.86
2023-06-10T07:23:47.131Z,98932.14
2023-06-10T07:24:54.843Z,98929.92
2023-06-10T07:26:03.805Z,98930.15
2023-06-10T07:27:12.844Z,98932.64
2023-06-10T07:28:21.357Z,98932.31
2023-06-10T07:29:29.295Z,98931.36
2023-06-10T07:30:37.066Z,98929.38
2023-06-10T07:31:45.423Z,98926.60
2023-06-10T07:32:54.263Z,98927.15
2023-06-10T07:34:02.387Z,98925.48
2023-06-10T07:35:13.007Z,98926.10
2023-06-10T07:36:21.245Z,98921.92
2023-06-10T07:37:29.389Z,98916.61
2023-06-10T07:38:37.554Z,98913.67
2023-06-10T07:39:45.817Z,98906.13
2023-06-10T07:40:54.824Z,98905.35
2023-06-10T07:42:02.031Z,98904.23
2023-06-10T07:43:10.224Z,98905.58
2023-06-10T07:44:18.656Z,98907.41
2023-06-10T07:45:26.965Z,98905.41
2023-06-10T07:46:34.943Z,98905.17
2023-06-10T07:47:43.240Z,98905.25
2023-06-10T07:48:51.966Z,98902.58
2023-06-10T07:50:01.052Z,98904.96
2023-06-10T07:51:08.300Z,98901.14
2023-06-10T07:52:16.748Z,98898.14
2023-06-10T07:53:24.599Z,98892.75
2023-06-10T07:54:32.428Z,98889.41
2023-06-10T07:55:40.020Z,98886.88
2023-06-10T07:56:46.835Z,98886.82
2023-06-10T07:57:54.695Z,98885.54
2023-06-10T07:59:02.861Z,98885.48
2023-06-10T08:00:11.651Z,98889.04
2023-06-10T08:01:22.657Z,98892.52
2023-06-10T08:02:30.606Z,98893.86
2023-06-10T08:03:38.028Z,98892.81
2023-06-10T08:04:45.676Z,98890.04
2023-06-10T08:05:53.708Z,98887.10
2023-06-10T08:07:01.571Z,98882.48
2023-06-10T08:08:08.720Z,98878.95
2023-06-10T08:09:17.551Z,98875.22
2023-06-10T08:10:24.852Z,98873.83
2023-06-10T08:11:31.986Z,98871.11
2023-06-10T08:12:40.435Z,98872.05
2023-06-10T08:13:47.862Z,98868.90
2023-06-10T08:14:54.822Z,98865.56
2023-06-10T08:16:03.274Z,98868.89
2023-06-10T08:17:11.474Z,98870.34
2023-06-10T08:18:20.260Z,98875.10
2023-06-10T08:19:28.430Z,98875.00
2023-06-10T08:20:37.223Z,98879.66
2023-06-10T08:21:45.697Z,98877.60
2023-06-10T08:22:54.181Z,98879.82
2023-06-10T08:24:01.629Z,98880.60
2023-06-10T08:25:09.512Z,98879.81
2023-06-10T08:26:16.484Z,98882.27
2023-06-10T08:27:24.901Z,98881.26
2023-06-10T08:28:32.568Z,98881.42
2023-06-10T08:29:40.583Z,98878.94
2023-06-10T08:30:48.427Z,98880.98
2023-06-10T08:31:56.305Z,98884.33
2023-06-10T08:33:04.617Z,98883.87
2023-06-10T08:34:12.200Z,98884.60
2023-06-10T08:35:20.439Z,98885.38
2023-06-10T08:36:28.576Z,98885.14
2023-06-10T08:37:36.109Z,98886.58
2023-06-10T08:38:44.290Z,98885.48
2023-06-10T08:39:52.418Z,98886.65
2023-06-10T08:41:03.239Z,98883.15
2023-06-10T08:42:38.839Z,98880.60
2023-06-10T08:43:48.901Z,98879.33
2023-06-10T08:45:03.430Z,98880.88
2023-06-10T08:46:13.197Z,98882.60
2023-06-10T08:47:22.435Z,98881.22
2023-06-10T08:48:33.279Z,98879.45
2023-06-10T08:49:44.230Z,98876.80
2023-06-10T08:50:51.662Z,98874.89
2023-06-10T08:52:04.640Z,98872.63
2023-06-10T08:53:12.893Z,98876.23
2023-06-10T08:54:23.821Z,98876.52
2023-06-10T08:55:33.992Z,98879.61
2023-06-10T08:56:43.387Z,98878.18
2023-06-10T08:57:51.517Z,98873.34
2023-06-10T08:59:00.539Z,98869.80
2023-06-10T09:00:09.355Z,98867.19
2023-06-10T09:01:20.814Z,98864.58
2023-06-10T09:02:28.154Z,98862.74
2023-06-10T09:03:36.381Z,98858.14
2023-06-10T09:04:46.284Z,98851.98
2023-06-10T09:05:54.346Z,98852.77
2023-06-10T09:07:03.189Z,98850.88
2023-06-10T09:08:12.304Z,98853.32
2023-06-10T09:09:21.500Z,98856.65
2023-06-10T09:10:29.901Z,98859.19
2023-06-10T09:11:37.783Z,98858.14
2023-06-10T09:12:44.984Z,98863.53
2023-06-10T09:13:52.479Z,98862.96
2023-06-10T09:15:01.602Z,98868.46
2023-06-10T09:16:11.302Z,98864.58
2023-06-10T09:17:20.784Z,98856.75
2023-06-10T09:18:29.259Z,98852.86
2023-06-10T09:19:37.103Z,98847.38
2023-06-10T09:20:45.981Z,98847.83
2023-06-10T09:21:52.793Z,98845.93
2023-06-10T09:23:00.962Z,98843.98
2023-06-10T09:24:08.693Z,98838.05
2023-06-10T09:25:15.641Z,98834.55
2023-06-10T09:26:23.336Z,98828.90
2023-06-10T09:27:30.040Z,98824.56
2023-06-10T09:28:36.742Z,98829.16
2023-06-10T09:29:57.976Z,98828.67
2023-06-10T09:31:09.329Z,98829.95
2023-06-10T09:32:19.262Z,98838.95
2023-06-10T09:33:29.744Z,98847.11
2023-06-10T09:34:39.647Z,98848.60
2023-06-10T09:35:50.557Z,98851.88
2023-06-10T09:36:57.933Z,98850.54
2023-06-10T09:38:04.827Z,98850.32
2023-06-10T09:39:19.519Z,98846.66
2023-06-10T09:40:26.712Z,98843.94
2023-06-10T09:41:40.605Z,98846.00
2023-06-10T09:42:47.280Z,98844.98
2023-06-10T09:43:54.176Z,98846.32
2023-06-10T09:45:01.335Z,98846.33
2023-06-10T09:46:08.656Z,98853.39
2023-06-10T09:47:19.041Z,98857.10
2023-06-10T09:48:25.933Z,98860.37
2023-06-10T09:49:35.648Z,98862.64
2023-06-10T09:50:46.554Z,98859.88
2023-06-10T09:51:57.754Z,98850.21
2023-06-10T09:53:05.159Z,98839.27
2023-06-10T09:54:12.416Z,98823.47
2023-06-10T09:55:20.478Z,98813.59
2023-06-10T09:56:36.775Z,98816.13
2023-06-10T09:57:46.289Z,98819.14
2023-06-10T09:58:55.572Z,98823.64
2023-06-10T10:00:03.591Z,98823.87
2023-06-10T10:01:18.925Z,98823.88
2023-06-10T10:02:26.418Z,98819.04
2023-06-10T10:03:33.019Z,98815.87
2023-06-10T10:04:39.942Z,98810.82
2023-06-10T10:05:47.482Z,98810.73
2023-06-10T10:06:54.122Z,98803.79
2023-06-10T10:08:01.232Z,98804.51
2023-06-10T10:09:09.326Z,98804.13
2023-06-10T10:10:17.312Z,98808.10
2023-06-10T10:11:25.602Z,98810.27
2023-06-10T10:12:35.554Z,98810.27
2023-06-10T10:13:43.100Z,98805.33
2023-06-10T10:14:53.159Z,98801.12
2023-06-10T10:16:03.491Z,98793.52
2023-06-10T10:17:12.461Z,98788.81
2023-06-10T10:18:20.814Z,98788.36
2023-06-10T10:19:32.499Z,98793.58
2023-06-10T10:20:47.040Z,98798.02
2023-06-10T10:21:56.367Z,98801.51
2023-06-10T10:23:05.624Z,98798.06
2023-06-10T10:24:24.368Z,98791.14
2023-06-10T10:25:37.227Z,98790.98
2023-06-10T10:26:44.674Z,98791.71
2023-06-10T10:27:58.917Z,98797.91
2023-06-10T10:29:19.434Z,98798.64
2023-06-10T10:30:28.064Z,98794.25
2023-06-10T10:31:37.152Z,98787.10
2023-06-10T10:32:56.079Z,98783.15
2023-06-10T10:34:06.103Z,98780.95
2023-06-10T10:35:25.551Z,98782.88
2023-06-10T10:36:34.107Z,98786.38
2023-06-10T10:37:41.027Z,98784.71
2023-06-10T10:38:50.298Z,98777.33
2023-06-10T10:40:01.114Z,98777.27
2023-06-10T10:41:07.984Z,98772.67
2023-06-10T10:42:15.378Z,98771.83
2023-06-10T10:43:25.383Z,98766.24
2023-06-10T10:44:32.594Z,98770.12
2023-06-10T10:45:39.210Z,98768.02
2023-06-10T10:46:49.153Z,98765.23
2023-06-10T10:47:57.657Z,98764.07
2023-06-10T10:49:05.775Z,98764.85
2023-06-10T10:50:20.190Z,98764.68
2023-06-10T10:51:28.155Z,98769.78
2023-06-10T10:52:55.878Z,98771.67
2023-06-10T10:54:19.297Z,98766.96
2023-06-10T10:55:27.774Z,98756.64
2023-06-10T10:56:35.482Z,98748.70
2023-06-10T10:57:43.474Z,98744.99
2023-06-10T10:59:08.245Z,98742.55
2023-06-10T11:00:15.295Z,98743.39
2023-06-10T11:01:22.393Z,98742.84
2023-06-10T11:02:47.784Z,98739.51
2023-06-10T11:03:55.824Z,98747.21
2023-06-10T11:05:04.362Z,98754.93
2023-06-10T11:06:16.888Z,98759.30
2023-06-10T11:07:24.285Z,98759.98
2023-06-10T11:08:52.306Z,98756.87
2023-06-10T11:10:13.586Z,98755.14
2023-06-10T11:11:29.217Z,98747.33
2023-06-10T11:12:46.519Z,98749.45
2023-06-10T11:14:12.296Z,98748.17
2023-06-10T11:15:33.357Z,98745.01
2023-06-10T11:16:45.260Z,98747.34
2023-06-10T11:18:14.159Z,98746.39
2023-06-10T11:19:43.248Z,98747.56
2023-06-10T11:21:00.003Z,98753.02
2023-06-10T11:22:10.741Z,98756.84
2023-06-10T11:23:36.595Z,98757.55
2023-06-10T11:24:43.829Z,98758.61
2023-06-10T11:25:50.510Z,98756.05
2023-06-10T11:26:57.766Z,98755.11
2023-06-10T11:28:05.885Z,98753.72
2023-06-10T11:29:13.153Z,98754.16
2023-06-10T11:30:24.171Z,98754.33
2023-06-10T11:31:35.739Z,98751.27
2023-06-10T11:32:43.414Z,98750.88
2023-06-10T11:33:50.944Z,98755.33
2023-06-10T11:34:58.431Z,98760.77
2023-06-10T11:36:12.927Z,98764.65
2023-06-10T11:37:20.139Z,98767.36
2023-06-10T11:38:28.630Z,98771.31
2023-06-10T11:39:37.099Z,98767.42
2023-06-10T11:40:52.626Z,98772.19
2023-06-10T11:42:00.784Z,98772.03
2023-06-10T11:43:08.297Z,98776.69
2023-06-10T11:44:19.609Z,98775.52
2023-06-10T11:45:28.495Z,98777.02
2023-06-10T11:46:36.351Z,98773.30
2023-06-10T11:47:45.013Z,98770.30
2023-06-10T11:48:57.318Z,98765.77
2023-06-10T11:50:07.354Z,98767.42
2023-06-10T11:51:15.100Z,98770.03
2023-06-10T11:52:41.020Z,98768.42
2023-06-10T11:53:53.695Z,98766.11
2023-06-10T11:55:00.891Z,98767.60
2023-06-10T11:56:08.544Z,98768.98
2023-06-10T11:57:15.781Z,98769.43
2023-06-10T11:58:24.502Z,98766.60
2023-06-10T11:59:34.303Z,98762.72
2023-06-10T12:00:51.475Z,98762.10
2023-06-10T12:01:59.744Z,98763.77
2023-06-10T12:03:07.057Z,98761.33
2023-06-10T12:04:16.235Z,98760.10
2023-06-10T12:05:24.550Z,98753.67
2023-06-10T12:06:42.828Z,98750.13
2023-06-10T12:07:50.642Z,98743.30
2023-06-10T12:09:07.346Z,98743.14
2023-06-10T12:10:27.374Z,98747.96
2023-06-10T12:11:35.910Z,98757.23
2023-06-10T12:12:43.557Z,98759.90
2023-06-10T12:13:51.612Z,98758.90
2023-06-10T12:15:02.326Z,98757.00
2023-06-10T12:16:13.825Z,98753.41
2023-06-10T12:17:20.997Z,98749.35
2023-06-10T12:18:28.098Z,98750.35
2023-06-10T12:19:34.925Z,98752.07
2023-06-10T12:20:42.278Z,98754.61
2023-06-10T12:21:49.207Z,98754.27
2023-06-10T12:22:55.798Z,98753.90
2023-06-10T12:24:10.549Z,98757.23
2023-06-10T12:25:18.598Z,98761.33
2023-06-10T12:26:43.749Z,98763.17
2023-06-10T12:27:58.261Z,98772.44
2023-06-10T12:29:26.937Z,98777.33
2023-06-10T12:30:35.522Z,98781.32
2023-06-10T12:32:02.051Z,98783.92
2023-06-10T12:33:23.407Z,98787.20
2023-06-10T12:34:39.480Z,98785.26
2023-06-10T12:35:54.158Z,98778.98
2023-06-10T12:37:01.544Z,98780.87
2023-06-10T12:38:13.592Z,98777.55
2023-06-10T12:39:20.852Z,98776.98
2023-06-10T12:40:38.361Z,98764.90
2023-06-10T12:41:52.246Z,98761.23
2023-06-10T12:42:59.789Z,98756.58
2023-06-10T12:44:07.943Z,98756.57
2023-06-10T12:45:16.353Z,98754.96
2023-06-10T12:46:24.219Z,98756.23
2023-06-10T12:47:37.249Z,98755.63
2023-06-10T12:48:54.396Z,98749.37
2023-06-10T12:50:03.247Z,98748.27
2023-06-10T12:51:12.541Z,98751.20
2023-06-10T12:52:20.437Z,98752.63
2023-06-10T12:53:31.076Z,98757.24
2023-06-10T12:54:39.898Z,98760.36
2023-06-10T12:55:48.408Z,98764.12
2023-06-10T12:56:55.742Z,98763.56
2023-06-10T12:58:05.670Z,98764.84
2023-06-10T12:59:13.867Z,98767.56
2023-06-10T13:00:22.933Z,98772.06
2023-06-10T13:01:31.155Z,98771.11
2023-06-10T13:02:40.070Z,98767.95
2023-06-10T13:03:47.770Z,98763.95
2023-06-10T13:04:55.332Z,98767.61
2023-06-10T13:06:02.552Z,98769.45
2023-06-10T13:07:10.995Z,98771.33
2023-06-10T13:08:18.835Z,98771.83
2023-06-10T13:09:25.727Z,98776.05
2023-06-10T13:10:33.904Z,98778.09
2023-06-10T13:11:42.520Z,98775.88
2023-06-10T13:12:49.307Z,98771.44
2023-06-10T13:13:56.007Z,98769.21
2023-06-10T13:15:04.254Z,98765.27
2023-06-10T13:16:11.357Z,98762.67
2023-06-10T13:17:19.694Z,98762.52
2023-06-10T13:18:26.384Z,98764.80
2023-06-10T13:19:33.190Z,98763.67
2023-06-10T13:20:40.118Z,98766.61
2023-06-10T13:21:46.686Z,98763.06
2023-06-10T13:22:54.660Z,98763.34
2023-06-10T13:24:01.226Z,98765.27
2023-06-10T13:25:11.846Z,98768.66
2023-06-10T13:26:20.139Z,98769.71
2023-06-10T13:27:27.034Z,98770.73
2023-06-10T13:28:36.075Z,98775.98
2023-06-10T13:29:44.502Z,98772.48
2023-06-10T13:30:51.036Z,98769.27
2023-06-10T13:31:58.535Z,98768.44
2023-06-10T13:33:05.528Z,98768.45
2023-06-10T13:34:13.418Z,98764.95
2023-06-10T13:35:20.642Z,98762.96